createdAt,value
2018-04-09T00:00:55.713Z,0.00
2018-04-09T00:01:55.372Z,0.00
2018-04-09T00:03:48.554Z,0.00
2018-04-09T00:04:48.813Z,0.00
2018-04-09T00:06:41.639Z,0.00
2018-04-09T00:07:41.610Z,0.00
2018-04-09T00:09:34.982Z,0.00
2018-04-09T00:10:34.969Z,0.00
2018-04-09T00:12:28.607Z,0.00
2018-04-09T00:13:28.348Z,0.00
2018-04-09T00:15:22.231Z,0.00
2018-04-09T00:16:21.715Z,0.00
2018-04-09T00:18:15.111Z,0.00
2018-04-09T00:19:15.635Z,0.00
2018-04-09T00:21:08.474Z,0.00
2018-04-09T00:22:08.434Z,0.00
2018-04-09T00:24:01.552Z,0.00
2018-04-09T00:25:01.320Z,0.00
2018-04-09T00:26:54.375Z,0.00
2018-04-09T00:27:54.161Z,0.00
2018-04-09T00:29:47.213Z,0.00
2018-04-09T00:30:47.067Z,0.00
2018-04-09T00:32:41.962Z,0.00
2018-04-09T00:33:40.381Z,0.00
2018-04-09T00:35:34.067Z,0.00
2018-04-09T00:36:33.764Z,0.00
2018-04-09T00:38:27.178Z,0.00
2018-04-09T00:39:27.124Z,0.00
2018-04-09T00:41:20.748Z,0.00
2018-04-09T00:42:20.464Z,0.00
2018-04-09T00:44:13.554Z,0.00
2018-04-09T00:45:13.342Z,0.00
2018-04-09T00:47:06.322Z,0.00
2018-04-09T00:48:06.191Z,0.00
2018-04-09T00:49:59.644Z,0.00
2018-04-09T00:50:59.552Z,0.00
2018-04-09T00:52:53.130Z,0.00
2018-04-09T00:53:52.933Z,0.00
2018-04-09T00:55:46.317Z,0.00
2018-04-09T00:56:46.267Z,0.00
2018-04-09T00:58:39.493Z,0.00
2018-04-09T00:59:39.135Z,0.00
2018-04-09T01:01:32.201Z,0.00
2018-04-09T01:02:32.039Z,0.00
2018-04-09T01:04:25.056Z,0.00
2018-04-09T01:05:24.863Z,0.00
2018-04-09T01:07:17.975Z,0.00
2018-04-09T01:08:17.751Z,0.00
2018-04-09T01:10:10.849Z,0.00
2018-04-09T01:11:10.602Z,0.00
2018-04-09T01:13:03.560Z,0.00
2018-04-09T01:14:03.460Z,0.00
2018-04-09T01:15:57.648Z,0.00
2018-04-09T01:16:56.821Z,0.00
2018-04-09T01:18:50.390Z,0.00
2018-04-09T01:19:50.214Z,0.00
2018-04-09T01:21:43.586Z,0.00
2018-04-09T01:22:43.545Z,0.00
2018-04-09T01:24:37.203Z,0.00
2018-04-09T01:25:36.912Z,0.00
2018-04-09T01:27:30.560Z,0.00
2018-04-09T01:28:30.266Z,0.00
2018-04-09T01:30:23.359Z,0.00
2018-04-09T01:31:23.108Z,0.00
2018-04-09T01:33:16.248Z,0.00
2018-04-09T01:34:16.548Z,0.00
2018-04-09T01:36:09.100Z,0.00
2018-04-09T01:37:08.833Z,0.00
2018-04-09T01:39:01.752Z,0.00
2018-04-09T01:40:01.704Z,0.00
2018-04-09T01:41:54.904Z,0.00
2018-04-09T01:42:54.587Z,0.00
2018-04-09T01:44:48.292Z,0.00
2018-04-09T01:45:47.938Z,0.00
2018-04-09T01:47:42.920Z,0.00
2018-04-09T01:48:42.292Z,0.00
2018-04-09T01:50:35.672Z,0.00
2018-04-09T01:51:35.634Z,0.00
2018-04-09T01:53:28.726Z,0.00
2018-04-09T01:54:28.503Z,0.00
2018-04-09T01:56:22.097Z,0.00
2018-04-09T01:57:21.860Z,0.00
2018-04-09T01:59:15.428Z,0.00
2018-04-09T02:00:15.797Z,0.00
2018-04-09T02:02:08.868Z,0.00
2018-04-09T02:03:08.575Z,0.00
2018-04-09T02:05:02.340Z,0.00
2018-04-09T02:06:02.521Z,0.00
2018-04-09T02:07:54.993Z,0.00
2018-04-09T02:08:54.621Z,0.00
2018-04-09T02:10:48.207Z,0.00
2018-04-09T02:11:47.972Z,0.00
2018-04-09T02:13:41.388Z,0.00
2018-04-09T02:14:41.335Z,0.00
2018-04-09T02:16:34.735Z,0.00
2018-04-09T02:17:34.524Z,0.00
2018-04-09T02:19:28.207Z,0.00
2018-04-09T02:20:27.899Z,0.00
2018-04-09T02:22:20.817Z,0.00
2018-04-09T02:23:20.728Z,0.00
2018-04-09T02:25:14.478Z,0.00
2018-04-09T02:26:14.073Z,0.00
2018-04-09T02:28:07.052Z,0.00
2018-04-09T02:29:07.227Z,0.00
2018-04-09T02:30:59.944Z,0.00
2018-04-09T02:31:59.797Z,0.00
2018-04-09T02:33:53.390Z,0.00
2018-04-09T02:34:53.181Z,0.00
2018-04-09T02:36:46.815Z,0.00
2018-04-09T02:37:46.500Z,0.00
2018-04-09T02:39:39.941Z,0.00
2018-04-09T02:40:39.875Z,0.00
2018-04-09T02:42:34.522Z,0.00
2018-04-09T02:43:34.221Z,0.00
2018-04-09T02:45:28.006Z,0.00
2018-04-09T02:46:27.582Z,0.00
2018-04-09T02:48:20.690Z,0.00
2018-04-09T02:49:20.445Z,0.00
2018-04-09T02:51:13.547Z,0.00
2018-04-09T02:52:13.327Z,0.00
2018-04-09T02:54:06.468Z,0.00
2018-04-09T02:55:06.191Z,0.00
2018-04-09T02:56:59.840Z,0.00
2018-04-09T02:57:59.530Z,0.00
2018-04-09T02:59:53.120Z,0.00
2018-04-09T03:00:52.894Z,0.00
2018-04-09T03:02:46.434Z,0.00
2018-04-09T03:03:46.248Z,0.00
2018-04-09T03:05:39.298Z,0.00
2018-04-09T03:06:39.112Z,0.00
2018-04-09T03:08:32.271Z,0.00
2018-04-09T03:09:31.969Z,0.00
2018-04-09T03:11:26.618Z,0.00
2018-04-09T03:12:26.898Z,0.00
2018-04-09T03:14:20.105Z,0.00
2018-04-09T03:15:19.203Z,0.00
2018-04-09T03:17:12.103Z,0.00
2018-04-09T03:18:12.061Z,0.00
2018-04-09T03:20:05.077Z,0.00
2018-04-09T03:21:04.946Z,0.00
2018-04-09T03:22:57.838Z,0.00
2018-04-09T03:23:57.809Z,0.00
2018-04-09T03:25:51.744Z,0.00
2018-04-09T03:26:51.168Z,0.00
2018-04-09T03:28:44.310Z,0.00
2018-04-09T03:29:44.020Z,0.00
2018-04-09T03:31:37.653Z,0.00
2018-04-09T03:32:37.396Z,0.00
2018-04-09T03:34:30.952Z,0.00
2018-04-09T03:35:30.723Z,0.00
2018-04-09T03:37:24.385Z,0.00
2018-04-09T03:38:24.084Z,0.00
2018-04-09T03:40:17.169Z,0.00
2018-04-09T03:41:16.978Z,0.00
2018-04-09T03:43:10.400Z,0.00
2018-04-09T03:44:10.495Z,0.00
2018-04-09T03:46:05.458Z,0.00
2018-04-09T03:47:04.680Z,0.00
2018-04-09T03:48:58.531Z,0.00
2018-04-09T03:49:58.030Z,0.00
2018-04-09T03:51:52.683Z,0.00
2018-04-09T03:52:52.382Z,0.00
2018-04-09T03:54:45.629Z,0.00
2018-04-09T03:55:45.266Z,0.00
2018-04-09T03:57:38.124Z,0.00
2018-04-09T03:58:38.106Z,0.00
2018-04-09T04:00:31.649Z,0.00
2018-04-09T04:01:31.463Z,0.00
2018-04-09T04:03:24.367Z,0.00
2018-04-09T04:04:24.363Z,0.00
2018-04-09T04:06:17.212Z,0.00
2018-04-09T04:07:17.204Z,0.00
2018-04-09T04:09:10.073Z,0.00
2018-04-09T04:10:10.070Z,0.00
2018-04-09T04:12:02.975Z,0.00
2018-04-09T04:13:02.931Z,0.00
2018-04-09T04:14:56.484Z,0.00
2018-04-09T04:15:56.292Z,0.00
2018-04-09T04:17:49.944Z,0.00
2018-04-09T04:18:49.640Z,0.00
2018-04-09T04:20:43.120Z,0.00
2018-04-09T04:21:42.558Z,0.00
2018-04-09T04:23:36.010Z,0.00
2018-04-09T04:24:35.407Z,4.00
2018-04-09T04:26:28.848Z,0.00
2018-04-09T04:27:28.793Z,4.00
2018-04-09T04:29:21.680Z,4.00
2018-04-09T04:30:21.581Z,8.00
2018-04-09T04:32:15.175Z,4.00
2018-04-09T04:33:14.938Z,8.00
2018-04-09T04:35:08.727Z,12.00
2018-04-09T04:36:08.301Z,12.00
2018-04-09T04:38:01.991Z,20.00
2018-04-09T04:39:01.663Z,20.00
2018-04-09T04:40:55.373Z,28.00
2018-04-09T04:41:55.115Z,32.00
2018-04-09T04:43:48.940Z,40.00
2018-04-09T04:44:48.372Z,44.00
2018-04-09T04:46:41.354Z,64.00
2018-04-09T04:47:41.356Z,68.00
2018-04-09T04:49:34.755Z,84.00
2018-04-09T04:50:34.708Z,88.00
2018-04-09T04:52:28.394Z,104.00
2018-04-09T04:53:28.070Z,112.00
2018-04-09T04:55:22.075Z,140.00
2018-04-09T04:56:21.420Z,152.00
2018-04-09T04:58:15.190Z,192.00
2018-04-09T04:59:14.771Z,216.00
2018-04-09T05:01:08.588Z,264.00
2018-04-09T05:02:08.146Z,292.00
2018-04-09T05:04:02.130Z,348.00
2018-04-09T05:05:02.884Z,376.00
2018-04-09T05:06:55.292Z,416.00
2018-04-09T05:07:54.877Z,412.00
2018-04-09T05:09:51.815Z,424.00
2018-04-09T05:10:48.270Z,460.00
2018-04-09T05:12:41.983Z,592.00
2018-04-09T05:13:41.934Z,656.00
2018-04-09T05:15:35.917Z,668.00
2018-04-09T05:16:35.105Z,652.00
2018-04-09T05:18:28.777Z,700.00
2018-04-09T05:19:28.316Z,744.00
2018-04-09T05:21:21.941Z,752.00
2018-04-09T05:22:21.763Z,728.00
2018-04-09T05:24:41.151Z,772.00
2018-04-09T05:25:41.194Z,840.00
2018-04-09T05:27:34.874Z,924.00
2018-04-09T05:28:34.518Z,944.00
2018-04-09T05:30:28.187Z,912.00
2018-04-09T05:31:29.210Z,896.00
2018-04-09T05:33:23.833Z,888.00
2018-04-09T05:34:21.630Z,884.00
2018-04-09T05:36:16.002Z,864.00
2018-04-09T05:37:15.949Z,872.00
2018-04-09T05:39:08.187Z,940.00
2018-04-09T05:40:07.854Z,976.00
2018-04-09T05:42:02.307Z,1040.00
2018-04-09T05:43:01.238Z,1068.00
2018-04-09T05:44:55.117Z,1092.00
2018-04-09T05:45:54.691Z,1112.00
2018-04-09T05:47:49.007Z,1180.00
2018-04-09T05:48:50.226Z,1308.00
2018-04-09T05:50:46.111Z,1488.00
2018-04-09T05:51:43.434Z,1512.00
2018-04-09T05:53:35.738Z,1464.00
2018-04-09T05:54:35.288Z,1512.00
2018-04-09T05:56:28.578Z,1532.00
2018-04-09T05:57:28.493Z,1496.00
2018-04-09T05:59:22.422Z,1396.00
2018-04-09T06:00:21.900Z,1436.00
2018-04-09T06:02:15.770Z,1680.00
2018-04-09T06:03:15.233Z,1780.00
2018-04-09T06:05:08.711Z,1800.00
2018-04-09T06:06:08.005Z,1772.00
2018-04-09T06:08:01.763Z,2224.00
2018-04-09T06:09:01.448Z,1804.00
2018-04-09T06:10:56.190Z,1844.00
2018-04-09T06:11:55.467Z,1852.00
2018-04-09T06:13:49.859Z,1944.00
2018-04-09T06:14:49.849Z,1952.00
2018-04-09T06:16:43.228Z,1996.00
2018-04-09T06:17:41.459Z,2100.00
2018-04-09T06:19:36.117Z,2244.00
2018-04-09T06:20:35.637Z,2292.00
2018-04-09T06:22:29.389Z,2320.00
2018-04-09T06:23:28.784Z,2260.00
2018-04-09T06:25:23.904Z,2156.00
2018-04-09T06:26:22.969Z,2204.00
2018-04-09T06:28:17.912Z,2408.00
2018-04-09T06:29:15.805Z,2496.00
2018-04-09T06:31:09.206Z,2468.00
2018-04-09T06:32:09.637Z,2404.00
2018-04-09T06:34:02.529Z,2240.00
2018-04-09T06:35:02.233Z,2136.00
2018-04-09T06:36:56.890Z,2076.00
2018-04-09T06:37:56.432Z,2124.00
2018-04-09T06:39:49.313Z,2392.00
2018-04-09T06:40:49.288Z,2568.00
2018-04-09T06:42:44.130Z,2608.00
2018-04-09T06:43:42.339Z,2564.00
2018-04-09T06:45:36.521Z,2692.00
2018-04-09T06:46:35.722Z,2716.00
2018-04-09T06:48:29.942Z,2812.00
2018-04-09T06:49:30.847Z,3076.00
2018-04-09T06:51:23.855Z,3064.00
2018-04-09T06:52:22.781Z,3032.00
2018-04-09T06:54:18.246Z,3052.00
2018-04-09T06:55:16.633Z,3068.00
2018-04-09T06:57:10.141Z,3064.00
2018-04-09T06:58:09.504Z,3024.00
2018-04-09T07:00:06.606Z,3004.00
2018-04-09T07:01:03.879Z,3060.00
2018-04-09T07:02:56.946Z,3080.00
2018-04-09T07:03:57.309Z,3088.00
2018-04-09T07:05:49.736Z,3064.00
2018-04-09T07:06:51.147Z,3060.00
2018-04-09T07:08:43.643Z,3100.00
2018-04-09T07:09:42.840Z,3084.00
2018-04-09T07:11:37.018Z,3240.00
2018-04-09T07:12:36.028Z,3320.00
2018-04-09T07:14:30.471Z,3496.00
2018-04-09T07:15:30.332Z,3572.00
2018-04-09T07:17:23.271Z,3636.00
2018-04-09T07:18:23.240Z,3648.00
2018-04-09T07:20:18.811Z,3616.00
2018-04-09T07:21:16.901Z,3688.00
2018-04-09T07:23:10.560Z,3780.00
2018-04-09T07:24:11.065Z,3840.00
2018-04-09T07:26:03.950Z,3984.00
2018-04-09T07:27:03.529Z,4024.00
2018-04-09T07:28:56.883Z,4124.00
2018-04-09T07:29:57.315Z,4136.00
2018-04-09T07:31:50.285Z,4136.00
2018-04-09T07:32:50.221Z,4128.00
2018-04-09T07:34:43.719Z,4164.00
2018-04-09T07:35:43.265Z,4200.00
2018-04-09T07:37:37.701Z,4348.00
2018-04-09T07:38:36.649Z,4324.00
2018-04-09T07:40:32.000Z,4260.00
2018-04-09T07:41:30.108Z,4260.00
2018-04-09T07:43:24.851Z,4332.00
2018-04-09T07:44:23.819Z,4352.00
2018-04-09T07:46:17.793Z,4428.00
2018-04-09T07:47:18.150Z,4440.00
2018-04-09T07:49:10.739Z,4408.00
2018-04-09T07:50:10.135Z,4404.00
2018-04-09T07:52:05.866Z,4476.00
2018-04-09T07:53:05.802Z,4480.00
2018-04-09T07:54:58.658Z,4564.00
2018-04-09T07:55:58.724Z,4536.00
2018-04-09T07:57:51.576Z,4552.00
2018-04-09T07:58:52.011Z,4560.00
2018-04-09T08:00:45.857Z,5040.00
2018-04-09T08:01:44.941Z,5260.00
2018-04-09T08:03:38.287Z,5068.00
2018-04-09T08:04:37.889Z,5072.00
2018-04-09T08:06:32.116Z,4908.00
2018-04-09T08:07:31.664Z,5536.00
2018-04-09T08:09:25.547Z,5900.00
2018-04-09T08:10:24.805Z,5644.00
2018-04-09T08:12:18.429Z,5316.00
2018-04-09T08:13:18.741Z,5236.00
2018-04-09T08:15:13.178Z,4992.00
2018-04-09T08:16:12.701Z,4752.00
2018-04-09T08:18:06.053Z,4408.00
2018-04-09T08:19:06.466Z,4412.00
2018-04-09T08:21:02.884Z,4616.00
2018-04-09T08:22:02.189Z,4740.00
2018-04-09T08:23:53.619Z,4676.00
2018-04-09T08:24:52.395Z,4624.00
2018-04-09T08:26:47.994Z,4608.00
2018-04-09T08:27:45.992Z,4672.00
2018-04-09T08:29:40.273Z,4852.00
2018-04-09T08:30:39.405Z,5024.00
2018-04-09T08:32:33.697Z,5264.00
2018-04-09T08:33:32.790Z,5312.00
2018-04-09T08:35:27.044Z,5176.00
2018-04-09T08:36:26.148Z,5112.00
2018-04-09T08:38:20.874Z,5100.00
2018-04-09T08:39:20.424Z,5108.00
2018-04-09T08:41:13.809Z,5368.00
2018-04-09T08:42:12.957Z,5424.00
2018-04-09T08:44:07.438Z,5548.00
2018-04-09T08:45:06.326Z,5628.00
2018-04-09T08:47:00.045Z,5756.00
2018-04-09T08:47:59.701Z,5804.00
2018-04-09T08:49:53.878Z,6020.00
2018-04-09T08:50:53.939Z,5964.00
2018-04-09T08:52:47.337Z,5864.00
2018-04-09T08:53:46.390Z,5844.00
2018-04-09T08:55:40.416Z,5684.00
2018-04-09T08:56:39.829Z,5728.00
2018-04-09T08:58:34.534Z,5692.00
2018-04-09T08:59:33.306Z,5592.00
2018-04-09T09:01:27.282Z,5528.00
2018-04-09T09:02:27.381Z,5548.00
2018-04-09T09:04:20.805Z,5568.00
2018-04-09T09:05:19.973Z,5548.00
2018-04-09T09:07:13.731Z,5540.00
2018-04-09T09:08:14.654Z,5584.00
2018-04-09T09:10:07.645Z,5752.00
2018-04-09T09:11:08.543Z,5856.00
2018-04-09T09:13:01.005Z,6036.00
2018-04-09T09:14:02.128Z,5976.00
2018-04-09T09:15:53.851Z,6056.00
2018-04-09T09:16:53.497Z,6080.00
2018-04-09T09:18:47.807Z,6540.00
2018-04-09T09:19:46.827Z,6628.00
2018-04-09T09:21:41.192Z,6488.00
2018-04-09T09:22:41.198Z,6508.00
2018-04-09T09:24:35.077Z,6504.00
2018-04-09T09:25:34.528Z,6388.00
2018-04-09T09:27:27.883Z,6224.00
2018-04-09T09:28:27.049Z,5800.00
2018-04-09T09:30:21.825Z,5636.00
2018-04-09T09:31:21.329Z,5912.00
2018-04-09T09:33:15.686Z,6488.00
2018-04-09T09:34:14.701Z,6640.00
2018-04-09T09:36:08.533Z,6676.00
2018-04-09T09:37:08.268Z,6672.00
2018-04-09T09:39:01.976Z,6672.00
2018-04-09T09:40:03.389Z,6636.00
2018-04-09T09:41:55.860Z,6436.00
2018-04-09T09:42:55.084Z,6224.00
2018-04-09T09:44:49.304Z,5992.00
2018-04-09T09:45:48.655Z,5984.00
2018-04-09T09:47:42.568Z,6140.00
2018-04-09T09:48:41.803Z,6228.00
2018-04-09T09:50:35.634Z,6280.00
2018-04-09T09:51:35.968Z,6144.00
2018-04-09T09:53:29.381Z,5860.00
2018-04-09T09:54:28.847Z,5864.00
2018-04-09T09:56:22.742Z,6324.00
2018-04-09T09:57:22.553Z,6552.00
2018-04-09T09:59:15.870Z,6612.00
2018-04-09T10:00:16.619Z,6468.00
2018-04-09T10:02:10.012Z,6192.00
2018-04-09T10:03:08.710Z,6084.00
2018-04-09T10:05:02.877Z,5872.00
2018-04-09T10:06:02.116Z,5760.00
2018-04-09T10:07:56.795Z,5656.00
2018-04-09T10:08:55.746Z,5784.00
2018-04-09T10:10:50.472Z,6096.00
2018-04-09T10:11:48.861Z,6132.00
2018-04-09T10:13:43.505Z,6048.00
2018-04-09T10:14:41.939Z,6008.00
2018-04-09T10:16:36.431Z,6132.00
2018-04-09T10:17:34.955Z,6308.00
2018-04-09T10:19:29.228Z,6692.00
2018-04-09T10:20:29.255Z,6888.00
2018-04-09T10:22:24.922Z,7232.00
2018-04-09T10:23:23.123Z,7356.00
2018-04-09T10:25:15.607Z,7360.00
2018-04-09T10:26:15.280Z,7356.00
2018-04-09T10:28:10.365Z,7292.00
2018-04-09T10:29:09.410Z,7280.00
2018-04-09T10:31:03.576Z,7188.00
2018-04-09T10:32:02.808Z,7196.00
2018-04-09T10:33:56.503Z,7260.00
2018-04-09T10:34:57.598Z,7264.00
2018-04-09T10:36:50.442Z,7068.00
2018-04-09T10:37:49.499Z,6996.00
2018-04-09T10:39:45.257Z,7120.00
2018-04-09T10:40:43.773Z,7284.00
2018-04-09T10:42:38.140Z,7652.00
2018-04-09T10:43:37.158Z,7620.00
2018-04-09T10:45:30.197Z,7288.00
2018-04-09T10:46:30.153Z,6996.00
2018-04-09T10:48:23.345Z,6232.00
2018-04-09T10:49:24.498Z,5780.00
2018-04-09T10:51:15.785Z,5280.00
2018-04-09T10:52:15.615Z,5252.00
2018-04-09T10:54:09.931Z,5492.00
2018-04-09T10:55:10.435Z,5724.00
2018-04-09T10:57:04.404Z,6292.00
2018-04-09T10:58:05.488Z,6528.00
2018-04-09T10:59:56.260Z,6912.00
2018-04-09T11:00:56.725Z,7040.00
2018-04-09T11:02:49.903Z,7364.00
2018-04-09T11:03:49.362Z,7532.00
2018-04-09T11:05:44.125Z,7852.00
2018-04-09T11:06:44.554Z,7832.00
2018-04-09T11:08:37.768Z,7304.00
2018-04-09T11:09:36.043Z,7112.00
2018-04-09T11:11:30.266Z,6836.00
2018-04-09T11:12:30.284Z,6752.00
2018-04-09T11:14:25.156Z,6768.00
2018-04-09T11:15:23.987Z,6904.00
2018-04-09T11:17:17.585Z,7076.00
2018-04-09T11:18:16.645Z,7096.00
2018-04-09T11:20:11.001Z,6820.00
2018-04-09T11:21:09.637Z,6572.00
2018-04-09T11:23:03.506Z,6548.00
2018-04-09T11:24:04.961Z,6816.00
2018-04-09T11:25:57.320Z,7384.00
2018-04-09T11:26:56.380Z,7404.00
2018-04-09T11:28:51.270Z,7164.00
2018-04-09T11:29:50.664Z,7012.00
2018-04-09T11:31:44.089Z,6544.00
2018-04-09T11:32:44.057Z,6260.00
2018-04-09T11:34:38.145Z,5904.00
2018-04-09T11:35:37.041Z,5980.00
2018-04-09T11:37:30.858Z,6520.00
2018-04-09T11:38:30.478Z,6864.00
2018-04-09T11:40:24.206Z,7376.00
2018-04-09T11:41:24.079Z,7584.00
2018-04-09T11:43:17.478Z,7232.00
2018-04-09T11:44:17.066Z,6876.00
2018-04-09T11:46:11.634Z,6668.00
2018-04-09T11:47:11.110Z,6832.00
2018-04-09T11:49:04.815Z,7072.00
2018-04-09T11:50:04.711Z,7168.00
2018-04-09T11:51:58.145Z,7448.00
2018-04-09T11:52:58.134Z,7728.00
2018-04-09T11:54:52.090Z,8096.00
2018-04-09T11:55:52.038Z,8052.00
2018-04-09T11:58:07.038Z,7576.00
2018-04-09T11:59:38.910Z,7240.00
2018-04-09T12:00:38.395Z,7236.00
2018-04-09T12:02:31.854Z,7400.00
2018-04-09T12:03:32.076Z,7452.00
2018-04-09T12:05:25.429Z,7316.00
2018-04-09T12:06:24.717Z,7176.00
2018-04-09T12:08:18.895Z,6968.00
2018-04-09T12:09:18.832Z,6888.00
2018-04-09T12:11:11.773Z,6852.00
2018-04-09T12:12:11.574Z,7112.00
2018-04-09T12:14:05.669Z,7788.00
2018-04-09T12:15:05.175Z,8192.00
2018-04-09T12:17:00.006Z,8552.00
2018-04-09T12:17:58.274Z,8392.00
2018-04-09T12:19:53.499Z,7604.00
2018-04-09T12:20:51.736Z,7268.00
2018-04-09T12:22:45.875Z,6924.00
2018-04-09T12:23:46.813Z,6776.00
2018-04-09T12:25:39.192Z,6452.00
2018-04-09T12:26:39.294Z,6264.00
2018-04-09T12:28:32.187Z,6000.00
2018-04-09T12:29:32.510Z,5952.00
2018-04-09T12:31:26.113Z,6096.00
2018-04-09T12:32:25.568Z,6252.00
2018-04-09T12:34:19.868Z,6536.00
2018-04-09T12:35:18.693Z,6660.00
2018-04-09T12:37:12.863Z,6664.00
2018-04-09T12:38:12.816Z,6548.00
2018-04-09T12:40:06.325Z,6240.00
2018-04-09T12:41:06.155Z,6100.00
2018-04-09T12:43:00.099Z,5896.00
2018-04-09T12:43:58.836Z,5808.00
2018-04-09T12:45:53.092Z,5684.00
2018-04-09T12:46:53.043Z,5652.00
2018-04-09T12:48:45.968Z,5584.00
2018-04-09T12:49:46.395Z,5536.00
2018-04-09T12:51:39.817Z,5456.00
2018-04-09T12:52:38.940Z,5428.00
2018-04-09T12:54:33.253Z,5396.00
2018-04-09T12:55:32.380Z,5376.00
2018-04-09T12:57:26.083Z,5280.00
2018-04-09T12:58:26.097Z,5224.00
2018-04-09T13:00:20.077Z,5108.00
2018-04-09T13:01:20.037Z,5028.00
2018-04-09T13:03:12.534Z,4844.00
2018-04-09T13:04:12.157Z,4752.00
2018-04-09T13:06:05.915Z,4620.00
2018-04-09T13:07:05.554Z,4560.00
2018-04-09T13:08:59.809Z,4456.00
2018-04-09T13:09:59.719Z,4400.00
2018-04-09T13:11:52.682Z,4284.00
2018-04-09T13:12:52.667Z,4200.00
2018-04-09T13:14:46.577Z,4024.00
2018-04-09T13:15:45.674Z,3952.00
2018-04-09T13:17:39.998Z,3940.00
2018-04-09T13:18:41.660Z,4028.00
2018-04-09T13:20:32.851Z,4356.00
2018-04-09T13:21:32.445Z,4584.00
2018-04-09T13:23:26.187Z,4980.00
2018-04-09T13:24:25.808Z,5116.00
2018-04-09T13:26:19.587Z,5232.00
2018-04-09T13:27:19.276Z,5208.00
2018-04-09T13:29:13.016Z,5052.00
2018-04-09T13:30:13.491Z,4976.00
2018-04-09T13:32:06.391Z,4940.00
2018-04-09T13:33:06.305Z,4976.00
2018-04-09T13:34:59.731Z,5120.00
2018-04-09T13:35:59.362Z,5240.00
2018-04-09T13:37:53.171Z,5648.00
2018-04-09T13:38:53.164Z,5936.00
2018-04-09T13:40:47.499Z,6552.00
2018-04-09T13:41:46.162Z,6812.00
2018-04-09T13:43:40.002Z,7192.00
2018-04-09T13:44:40.408Z,7320.00
2018-04-09T13:46:34.497Z,7272.00
2018-04-09T13:47:33.870Z,7156.00
2018-04-09T13:49:28.066Z,6840.00
2018-04-09T13:50:27.126Z,6692.00
2018-04-09T13:52:21.477Z,6432.00
2018-04-09T13:53:20.570Z,6380.00
2018-04-09T13:55:15.336Z,6208.00
2018-04-09T13:56:14.047Z,6080.00
2018-04-09T13:58:07.761Z,5828.00
2018-04-09T13:59:07.343Z,5680.00
2018-04-09T14:01:01.616Z,5468.00
2018-04-09T14:02:02.084Z,5388.00
2018-04-09T14:03:54.566Z,5308.00
2018-04-09T14:04:55.002Z,5288.00
2018-04-09T14:06:47.888Z,5224.00
2018-04-09T14:07:47.475Z,5244.00
2018-04-09T14:09:41.766Z,5380.00
2018-04-09T14:10:40.876Z,5440.00
2018-04-09T14:12:35.740Z,5536.00
2018-04-09T14:13:34.290Z,5576.00
2018-04-09T14:15:28.703Z,5688.00
2018-04-09T14:16:27.675Z,5716.00
2018-04-09T14:18:22.724Z,5600.00
2018-04-09T14:19:22.065Z,5492.00
2018-04-09T14:21:15.090Z,5368.00
2018-04-09T14:22:15.884Z,5380.00
2018-04-09T14:24:08.354Z,5460.00
2018-04-09T14:25:10.037Z,5524.00
2018-04-09T14:27:02.205Z,5564.00
2018-04-09T14:28:00.953Z,5536.00
2018-04-09T14:29:55.194Z,5424.00
2018-04-09T14:30:57.861Z,5444.00
2018-04-09T14:32:49.019Z,5524.00
2018-04-09T14:33:48.248Z,5452.00
2018-04-09T14:35:44.438Z,5024.00
2018-04-09T14:36:43.115Z,4744.00
2018-04-09T14:38:36.530Z,4352.00
2018-04-09T14:39:36.491Z,4264.00
2018-04-09T14:41:29.898Z,4120.00
2018-04-09T14:42:33.029Z,4020.00
2018-04-09T14:44:24.233Z,3824.00
2018-04-09T14:45:23.289Z,3728.00
2018-04-09T14:47:16.819Z,3732.00
2018-04-09T14:48:17.364Z,3832.00
2018-04-09T14:50:10.251Z,4020.00
2018-04-09T14:51:09.669Z,4064.00
2018-04-09T14:53:57.261Z,4052.00
2018-04-09T14:54:57.208Z,3988.00
2018-04-09T14:56:49.927Z,3740.00
2018-04-09T14:57:49.425Z,3584.00
2018-04-09T14:59:45.226Z,3404.00
2018-04-09T15:00:44.394Z,3380.00
2018-04-09T15:02:38.526Z,3428.00
2018-04-09T15:03:37.669Z,3500.00
2018-04-09T15:05:31.957Z,3608.00
2018-04-09T15:06:31.210Z,3616.00
2018-04-09T15:08:25.399Z,3592.00
2018-04-09T15:09:25.790Z,3572.00
2018-04-09T15:11:18.691Z,3504.00
2018-04-09T15:12:18.725Z,3464.00
2018-04-09T15:14:12.157Z,3300.00
2018-04-09T15:15:12.520Z,3108.00
2018-04-09T15:17:05.525Z,2600.00
2018-04-09T15:18:05.499Z,2332.00
2018-04-09T15:19:58.442Z,2028.00
2018-04-09T15:21:00.113Z,1948.00
2018-04-09T15:22:52.572Z,1980.00
2018-04-09T15:23:53.211Z,2112.00
2018-04-09T15:25:47.237Z,2432.00
2018-04-09T15:26:46.679Z,2628.00
2018-04-09T15:28:40.206Z,2948.00
2018-04-09T15:29:39.452Z,3036.00
2018-04-09T15:31:35.064Z,3172.00
2018-04-09T15:32:33.283Z,3164.00
2018-04-09T15:34:28.529Z,2964.00
2018-04-09T15:35:27.545Z,2700.00
2018-04-09T15:37:20.572Z,2384.00
2018-04-09T15:38:20.714Z,2428.00
2018-04-09T15:40:15.343Z,2768.00
2018-04-09T15:41:14.196Z,3016.00
2018-04-09T15:43:09.111Z,3444.00
2018-04-09T15:44:07.185Z,3600.00
2018-04-09T15:46:00.802Z,3580.00
2018-04-09T15:47:00.991Z,3492.00
2018-04-09T15:48:55.072Z,3368.00
2018-04-09T15:49:55.185Z,3312.00
2018-04-09T15:51:47.974Z,3204.00
2018-04-09T15:52:47.630Z,3204.00
2018-04-09T15:54:41.748Z,3324.00
2018-04-09T15:55:41.329Z,3380.00
2018-04-09T15:57:42.022Z,3460.00
2018-04-09T15:58:34.744Z,3480.00
2018-04-09T16:00:29.208Z,3468.00
2018-04-09T16:01:29.167Z,3448.00
2018-04-09T16:03:22.630Z,3388.00
2018-04-09T16:04:22.176Z,3348.00
2018-04-09T16:06:16.512Z,3180.00
2018-04-09T16:07:15.664Z,3052.00
2018-04-09T16:09:09.377Z,2756.00
2018-04-09T16:10:10.832Z,2664.00
2018-04-09T16:12:02.621Z,2452.00
2018-04-09T16:13:03.572Z,2272.00
2018-04-09T16:14:55.941Z,1996.00
2018-04-09T16:15:55.947Z,1944.00
2018-04-09T16:17:49.331Z,1952.00
2018-04-09T16:18:51.453Z,1980.00
2018-04-09T16:20:42.682Z,2060.00
2018-04-09T16:21:42.450Z,2124.00
2018-04-09T16:23:36.202Z,2228.00
2018-04-09T16:24:36.087Z,2276.00
2018-04-09T16:26:29.546Z,2328.00
2018-04-09T16:27:29.228Z,2304.00
2018-04-09T16:29:23.539Z,2220.00
2018-04-09T16:30:23.971Z,2184.00
2018-04-09T16:32:18.362Z,2152.00
2018-04-09T16:33:16.924Z,2140.00
2018-04-09T16:35:11.189Z,2140.00
2018-04-09T16:36:11.504Z,2124.00
2018-04-09T16:38:04.960Z,2068.00
2018-04-09T16:39:03.979Z,2032.00
2018-04-09T16:40:58.088Z,1952.00
2018-04-09T16:41:59.580Z,1912.00
2018-04-09T16:43:53.893Z,1860.00
2018-04-09T16:44:51.955Z,1864.00
2018-04-09T16:46:47.842Z,1844.00
2018-04-09T16:47:45.076Z,1840.00
2018-04-09T16:49:39.870Z,1808.00
2018-04-09T16:50:38.747Z,1776.00
2018-04-09T16:52:34.451Z,1744.00
2018-04-09T16:53:34.167Z,1712.00
2018-04-09T16:55:26.152Z,1636.00
2018-04-09T16:56:26.320Z,1600.00
2018-04-09T16:58:20.553Z,1536.00
2018-04-09T16:59:19.600Z,1508.00
2018-04-09T17:01:13.482Z,1464.00
2018-04-09T17:02:12.534Z,1440.00
2018-04-09T17:04:07.312Z,1380.00
2018-04-09T17:05:06.063Z,1368.00
2018-04-09T17:07:00.264Z,1372.00
2018-04-09T17:08:00.181Z,1376.00
2018-04-09T17:09:53.601Z,1376.00
2018-04-09T17:10:52.752Z,1372.00
2018-04-09T17:12:46.966Z,1384.00
2018-04-09T17:13:46.361Z,1360.00
2018-04-09T17:15:40.441Z,1292.00
2018-04-09T17:16:39.593Z,1248.00
2018-04-09T17:18:34.781Z,1176.00
2018-04-09T17:19:34.217Z,1156.00
2018-04-09T17:21:27.742Z,1120.00
2018-04-09T17:22:28.045Z,1108.00
2018-04-09T17:24:20.384Z,1108.00
2018-04-09T17:25:20.518Z,1100.00
2018-04-09T17:27:14.418Z,1040.00
2018-04-09T17:28:12.950Z,964.00
2018-04-09T17:30:06.447Z,788.00
2018-04-09T17:31:06.000Z,708.00
2018-04-09T17:32:59.264Z,612.00
2018-04-09T17:33:59.323Z,580.00
2018-04-09T17:36:45.139Z,524.00
2018-04-09T17:37:44.273Z,516.00
2018-04-09T17:39:38.093Z,548.00
2018-04-09T17:40:38.523Z,588.00
2018-04-09T17:42:36.485Z,636.00
2018-04-09T17:43:35.967Z,624.00
2018-04-09T17:45:29.475Z,572.00
2018-04-09T17:46:28.939Z,540.00
2018-04-09T17:48:22.849Z,488.00
2018-04-09T17:49:22.286Z,468.00
2018-04-09T17:51:17.124Z,412.00
2018-04-09T17:52:17.213Z,384.00
2018-04-09T17:54:09.469Z,328.00
2018-04-09T17:55:09.986Z,304.00
2018-04-09T17:57:02.217Z,268.00
2018-04-09T17:58:01.607Z,248.00
2018-04-09T17:59:57.360Z,204.00